createdAt,value
2023-09-23T00:02:19.385Z,19.21
2023-09-23T00:05:22.799Z,19.16
2023-09-23T00:08:25.649Z,19.08
2023-09-23T00:11:29.777Z,19.03
2023-09-23T00:14:32.832Z,19.02
2023-09-23T00:17:39.229Z,18.99
2023-09-23T00:20:42.182Z,18.97
2023-09-23T00:23:46.525Z,18.97
2023-09-23T00:26:49.977Z,18.99
2023-09-23T00:29:53.227Z,18.97
2023-09-23T00:32:56.106Z,18.86
2023-09-23T00:36:00.659Z,18.81
2023-09-23T00:39:04.626Z,18.72
2023-09-23T00:42:13.444Z,18.72
2023-09-23T00:45:17.652Z,18.76
2023-09-23T00:48:22.685Z,18.81
2023-09-23T00:51:25.896Z,18.85
2023-09-23T00:54:28.920Z,18.89
2023-09-23T00:57:31.913Z,18.88
2023-09-23T01:00:38.248Z,18.86
2023-09-23T01:03:40.915Z,18.87
2023-09-23T01:06:44.380Z,18.90
2023-09-23T01:09:49.387Z,18.97
2023-09-23T01:12:52.342Z,19.04
2023-09-23T01:15:55.305Z,19.08
2023-09-23T01:18:59.573Z,19.10
2023-09-23T01:22:02.841Z,19.03
2023-09-23T01:25:06.066Z,19.07
2023-09-23T01:28:14.914Z,19.02
2023-09-23T01:31:22.614Z,19.06
2023-09-23T01:34:26.158Z,19.06
2023-09-23T01:37:28.962Z,19.08
2023-09-23T01:40:32.866Z,19.10
2023-09-23T01:43:35.847Z,19.15
2023-09-23T01:46:39.099Z,19.18
2023-09-23T01:49:44.355Z,19.11
2023-09-23T01:52:47.298Z,19.14
2023-09-23T01:55:50.483Z,19.17
2023-09-23T01:58:53.112Z,19.13
2023-09-23T02:01:55.920Z,19.06
2023-09-23T02:04:58.823Z,19.00
2023-09-23T02:08:01.318Z,19.00
2023-09-23T02:11:04.169Z,19.03
2023-09-23T02:14:07.359Z,19.06
2023-09-23T02:17:10.651Z,19.02
2023-09-23T02:20:20.830Z,19.01
2023-09-23T02:23:24.975Z,19.01
2023-09-23T02:26:28.662Z,19.05
2023-09-23T02:29:32.201Z,19.10
2023-09-23T02:32:35.753Z,19.08
2023-09-23T02:35:38.538Z,19.16
2023-09-23T02:38:44.017Z,19.15
2023-09-23T02:41:51.909Z,19.14
2023-09-23T02:44:55.667Z,19.14
2023-09-23T02:47:59.586Z,19.21
2023-09-23T02:51:04.926Z,19.27
2023-09-23T02:54:07.695Z,19.35
2023-09-23T02:57:13.485Z,19.44
2023-09-23T03:00:21.426Z,19.47
2023-09-23T03:03:25.611Z,19.53
2023-09-23T03:06:28.397Z,19.54
2023-09-23T03:09:33.869Z,19.54
2023-09-23T03:12:42.143Z,19.46
2023-09-23T03:15:54.785Z,19.43
2023-09-23T03:19:11.820Z,19.42
2023-09-23T03:22:14.868Z,19.34
2023-09-23T03:25:19.203Z,19.35
2023-09-23T03:28:22.644Z,19.31
2023-09-23T03:31:25.673Z,19.34
2023-09-23T03:34:30.625Z,19.28
2023-09-23T03:37:33.626Z,19.23
2023-09-23T03:40:36.343Z,19.20
2023-09-23T03:43:40.379Z,19.17
2023-09-23T03:46:53.589Z,19.15
2023-09-23T03:49:57.871Z,19.18
2023-09-23T03:53:00.754Z,19.14
2023-09-23T03:56:04.530Z,19.04
2023-09-23T03:59:08.502Z,19.06
2023-09-23T04:02:11.951Z,19.09
2023-09-23T04:05:18.251Z,19.17
2023-09-23T04:08:21.105Z,19.20
2023-09-23T04:11:24.238Z,19.22
2023-09-23T04:14:28.400Z,19.21
2023-09-23T04:17:31.657Z,19.20
2023-09-23T04:20:34.384Z,19.18
2023-09-23T04:23:37.331Z,19.10
2023-09-23T04:26:40.207Z,19.12
2023-09-23T04:29:42.917Z,18.98
2023-09-23T04:32:45.408Z,19.00
2023-09-23T04:35:52.604Z,19.01
2023-09-23T04:38:55.138Z,18.96
2023-09-23T04:41:58.085Z,18.91
2023-09-23T04:45:00.484Z,18.93
2023-09-23T04:48:05.310Z,18.87
2023-09-23T04:51:10.143Z,18.83
2023-09-23T04:54:13.140Z,18.85
2023-09-23T04:57:15.900Z,18.86
2023-09-23T05:00:20.042Z,18.93
2023-09-23T05:03:24.961Z,18.95
2023-09-23T05:06:27.874Z,18.98
2023-09-23T05:09:31.750Z,18.99
2023-09-23T05:12:35.210Z,18.96
2023-09-23T05:15:38.117Z,18.99
2023-09-23T05:18:40.809Z,19.00
2023-09-23T05:21:46.240Z,19.01
2023-09-23T05:24:49.841Z,19.07
2023-09-23T05:27:56.589Z,19.13
2023-09-23T05:31:00.112Z,19.11
2023-09-23T05:34:02.628Z,19.12
2023-09-23T05:37:05.677Z,19.11
2023-09-23T05:40:32.116Z,19.16
2023-09-23T05:43:34.813Z,19.14
2023-09-23T05:46:39.292Z,19.17
2023-09-23T05:49:45.249Z,19.20
2023-09-23T05:52:49.464Z,19.21
2023-09-23T05:55:52.395Z,19.24
2023-09-23T05:58:55.197Z,19.21
2023-09-23T06:01:58.253Z,19.19
2023-09-23T06:05:02.537Z,19.16
2023-09-23T06:08:05.908Z,19.14
2023-09-23T06:11:11.652Z,19.14
2023-09-23T06:14:14.283Z,19.16
2023-09-23T06:17:18.059Z,19.13
2023-09-23T06:20:20.952Z,19.11
2023-09-23T06:23:24.354Z,19.10
2023-09-23T06:26:27.317Z,19.09
2023-09-23T06:29:31.569Z,19.03
2023-09-23T06:32:34.472Z,19.04
2023-09-23T06:35:37.314Z,19.04
2023-09-23T06:38:39.727Z,18.99
2023-09-23T06:41:42.443Z,19.00
2023-09-23T06:44:46.497Z,19.00
2023-09-23T06:47:49.617Z,19.06
2023-09-23T06:51:03.612Z,19.11
2023-09-23T06:54:06.473Z,19.13
2023-09-23T06:57:09.231Z,19.14
2023-09-23T07:00:12.660Z,19.10
2023-09-23T07:03:15.394Z,19.13
2023-09-23T07:06:18.506Z,19.07
2023-09-23T07:09:21.247Z,19.03
2023-09-23T07:12:25.741Z,18.96
2023-09-23T07:15:38.562Z,18.97
2023-09-23T07:18:41.523Z,19.02
2023-09-23T07:21:43.975Z,18.98
2023-09-23T07:24:47.824Z,18.97
2023-09-23T07:27:50.746Z,18.98
2023-09-23T07:30:53.786Z,18.97
2023-09-23T07:33:56.498Z,18.96
2023-09-23T07:36:59.481Z,18.96
2023-09-23T07:40:02.524Z,18.98
2023-09-23T07:43:05.955Z,18.89
2023-09-23T07:46:08.515Z,18.92
2023-09-23T07:49:11.333Z,18.92
2023-09-23T07:52:14.053Z,18.84
2023-09-23T07:55:17.241Z,18.83
2023-09-23T07:58:19.799Z,18.88
2023-09-23T08:01:22.565Z,18.84
2023-09-23T08:04:25.615Z,18.86
2023-09-23T08:07:28.159Z,18.89
2023-09-23T08:10:32.270Z,18.94
2023-09-23T08:13:35.015Z,18.96
2023-09-23T08:16:38.002Z,18.99
2023-09-23T08:19:40.712Z,19.00
2023-09-23T08:22:43.690Z,19.02
2023-09-23T08:25:47.033Z,19.03
2023-09-23T08:28:49.801Z,19.08
2023-09-23T08:31:52.434Z,19.05
2023-09-23T08:34:55.569Z,19.22
2023-09-23T08:37:58.346Z,19.33
2023-09-23T08:41:05.743Z,19.37
2023-09-23T08:44:08.713Z,19.56
2023-09-23T08:47:12.335Z,19.65
2023-09-23T08:50:16.808Z,19.55
2023-09-23T08:53:22.707Z,19.56
2023-09-23T08:56:25.572Z,19.63
2023-09-23T08:59:29.084Z,19.80
2023-09-23T09:02:31.846Z,20.08
2023-09-23T09:05:41.611Z,20.13
2023-09-23T09:08:44.570Z,20.25
2023-09-23T09:11:54.892Z,20.25
2023-09-23T09:14:57.528Z,20.50
2023-09-23T09:18:03.200Z,20.56
2023-09-23T09:21:09.425Z,21.00
2023-09-23T09:24:12.132Z,21.10
2023-09-23T09:27:15.539Z,21.70
2023-09-23T09:30:20.299Z,22.18
2023-09-23T09:33:47.482Z,22.22
2023-09-23T09:36:56.686Z,22.15
2023-09-23T09:40:01.923Z,22.02
2023-09-23T09:43:05.448Z,21.76
2023-09-23T09:46:11.224Z,21.45
2023-09-23T09:49:17.409Z,21.01
2023-09-23T09:52:24.660Z,20.92
2023-09-23T09:55:27.605Z,20.89
2023-09-23T09:58:40.097Z,20.90
2023-09-23T10:01:43.936Z,21.05
2023-09-23T10:04:48.824Z,21.73
2023-09-23T10:07:58.272Z,22.43
2023-09-23T10:11:06.069Z,22.55
2023-09-23T10:14:17.605Z,23.01
2023-09-23T10:17:28.259Z,24.08
2023-09-23T10:20:35.012Z,24.11
2023-09-23T10:23:42.153Z,23.98
2023-09-23T10:26:47.000Z,23.91
2023-09-23T10:29:50.047Z,24.02
2023-09-23T10:32:52.730Z,24.69
2023-09-23T10:35:58.117Z,24.64
2023-09-23T10:39:07.811Z,24.87
2023-09-23T10:42:15.108Z,24.74
2023-09-23T10:45:18.458Z,23.84
2023-09-23T10:48:21.563Z,23.15
2023-09-23T10:51:25.039Z,22.76
2023-09-23T10:54:28.813Z,22.81
2023-09-23T10:57:31.759Z,22.85
2023-09-23T11:00:34.736Z,23.00
2023-09-23T11:03:42.340Z,23.19
2023-09-23T11:06:45.042Z,23.19
2023-09-23T11:09:48.296Z,22.86
2023-09-23T11:12:51.065Z,22.85
2023-09-23T11:15:54.047Z,23.23
2023-09-23T11:19:06.977Z,23.33
2023-09-23T11:22:09.672Z,23.51
2023-09-23T11:25:13.584Z,23.40
2023-09-23T11:28:19.693Z,23.25
2023-09-23T11:31:22.385Z,23.36
2023-09-23T11:34:25.409Z,23.26
2023-09-23T11:37:28.404Z,23.48
2023-09-23T11:40:32.988Z,23.55
2023-09-23T11:43:35.378Z,23.40
2023-09-23T11:46:38.327Z,23.22
2023-09-23T11:49:40.813Z,22.88
2023-09-23T11:52:43.920Z,22.90
2023-09-23T11:55:46.925Z,22.81
2023-09-23T11:59:05.930Z,22.70
2023-09-23T12:02:10.723Z,22.29
2023-09-23T12:05:13.800Z,22.10
2023-09-23T12:08:16.931Z,21.92
2023-09-23T12:11:22.754Z,21.67
2023-09-23T12:14:25.603Z,21.60
2023-09-23T12:17:28.754Z,21.38
2023-09-23T12:20:33.476Z,21.36
2023-09-23T12:23:37.466Z,21.18
2023-09-23T12:26:40.262Z,21.26
2023-09-23T12:29:43.004Z,21.31
2023-09-23T12:32:46.062Z,21.14
2023-09-23T12:35:48.898Z,20.98
2023-09-23T12:38:51.558Z,20.86
2023-09-23T12:41:54.304Z,20.75
2023-09-23T12:44:56.974Z,20.51
2023-09-23T12:48:00.025Z,20.39
2023-09-23T12:51:02.858Z,20.40
2023-09-23T12:54:09.506Z,20.20
2023-09-23T12:57:12.258Z,20.13
2023-09-23T13:00:15.937Z,20.08
2023-09-23T13:03:18.544Z,19.96
2023-09-23T13:06:21.757Z,19.84
2023-09-23T13:09:24.491Z,19.70
2023-09-23T13:12:27.620Z,19.74
2023-09-23T13:15:30.249Z,19.85
2023-09-23T13:18:33.326Z,19.85
2023-09-23T13:21:36.166Z,19.81
2023-09-23T13:24:38.946Z,19.82
2023-09-23T13:27:42.523Z,19.82
2023-09-23T13:30:45.746Z,19.90
2023-09-23T13:33:49.559Z,19.80
2023-09-23T13:36:52.305Z,19.74
2023-09-23T13:39:56.008Z,19.66
2023-09-23T13:42:58.958Z,19.67
2023-09-23T13:46:01.607Z,19.72
2023-09-23T13:49:07.674Z,19.77
2023-09-23T13:52:11.350Z,19.91
2023-09-23T13:55:14.171Z,19.85
2023-09-23T13:58:16.880Z,19.86
2023-09-23T14:01:20.239Z,19.82
2023-09-23T14:04:23.642Z,19.74
2023-09-23T14:07:26.465Z,19.72
2023-09-23T14:10:29.556Z,19.72
2023-09-23T14:13:32.759Z,19.73
2023-09-23T14:16:35.994Z,19.66
2023-09-23T14:19:38.733Z,19.63
2023-09-23T14:22:46.662Z,19.47
2023-09-23T14:25:49.662Z,19.33
2023-09-23T14:28:52.498Z,19.19
2023-09-23T14:31:55.231Z,19.13
2023-09-23T14:34:58.137Z,19.02
2023-09-23T14:38:00.612Z,19.02
2023-09-23T14:41:03.845Z,18.98
2023-09-23T14:44:07.033Z,18.95
2023-09-23T14:47:09.777Z,18.99
2023-09-23T14:50:12.426Z,18.95
2023-09-23T14:53:17.334Z,18.92
2023-09-23T14:56:20.153Z,18.97
2023-09-23T14:59:23.169Z,18.78
2023-09-23T15:02:25.883Z,18.75
2023-09-23T15:05:28.754Z,18.72
2023-09-23T15:08:31.392Z,18.64
2023-09-23T15:11:34.581Z,18.57
2023-09-23T15:14:37.347Z,18.53
2023-09-23T15:17:40.566Z,18.49
2023-09-23T15:20:43.569Z,18.46
2023-09-23T15:23:46.499Z,18.47
2023-09-23T15:26:49.073Z,18.37
2023-09-23T15:29:53.402Z,18.32
2023-09-23T15:32:56.321Z,18.27
2023-09-23T15:35:59.077Z,18.17
2023-09-23T15:39:01.796Z,18.20
2023-09-23T15:42:04.939Z,18.15
2023-09-23T15:45:08.230Z,18.09
2023-09-23T15:48:11.469Z,18.06
2023-09-23T15:51:16.458Z,18.07
2023-09-23T15:54:19.475Z,18.01
2023-09-23T15:57:22.483Z,17.94
2023-09-23T16:00:25.289Z,17.94
2023-09-23T16:03:28.206Z,17.93
2023-09-23T16:06:30.771Z,17.95
2023-09-23T16:09:33.582Z,17.92
2023-09-23T16:12:36.029Z,17.90
2023-09-23T16:15:39.073Z,17.82
2023-09-23T16:18:42.310Z,17.86
2023-09-23T16:21:45.034Z,17.82
2023-09-23T16:24:47.938Z,17.84
2023-09-23T16:27:51.043Z,17.77
2023-09-23T16:30:53.831Z,17.71
2023-09-23T16:33:57.997Z,17.71
2023-09-23T16:37:00.922Z,17.75
2023-09-23T16:40:07.434Z,17.75
2023-09-23T16:43:10.257Z,17.76
2023-09-23T16:46:13.305Z,17.70
2023-09-23T16:49:16.127Z,17.67
2023-09-23T16:52:19.128Z,17.65
2023-09-23T16:55:21.687Z,17.60
2023-09-23T16:58:24.733Z,17.56
2023-09-23T17:01:27.426Z,17.59
2023-09-23T17:04:30.557Z,17.61
2023-09-23T17:07:33.434Z,17.57
2023-09-23T17:10:36.232Z,17.59
2023-09-23T17:13:39.938Z,17.59
2023-09-23T17:16:43.204Z,17.54
2023-09-23T17:19:46.580Z,17.54
2023-09-23T17:22:49.571Z,17.50
2023-09-23T17:25:52.914Z,17.49
2023-09-23T17:29:00.368Z,17.37
2023-09-23T17:32:03.248Z,17.40
2023-09-23T17:35:06.541Z,17.41
2023-09-23T17:38:09.825Z,17.40
2023-09-23T17:41:15.212Z,17.33
2023-09-23T17:44:18.041Z,17.32
2023-09-23T17:47:21.123Z,17.32
2023-09-23T17:50:23.911Z,17.28
2023-09-23T17:53:29.945Z,17.23
2023-09-23T17:56:32.696Z,17.15
2023-09-23T17:59:37.991Z,17.16
2023-09-23T18:02:41.948Z,17.10
2023-09-23T18:05:45.613Z,17.05
2023-09-23T18:08:48.362Z,16.99
2023-09-23T18:11:53.317Z,16.91
2023-09-23T18:14:56.396Z,16.90
2023-09-23T18:18:00.164Z,16.83
2023-09-23T18:21:03.264Z,16.81
2023-09-23T18:24:07.250Z,16.82
2023-09-23T18:27:09.972Z,16.77
2023-09-23T18:30:14.248Z,16.70
2023-09-23T18:33:17.732Z,16.70
2023-09-23T18:36:21.020Z,16.70
2023-09-23T18:39:24.183Z,16.66
2023-09-23T18:42:26.951Z,16.62
2023-09-23T18:45:29.756Z,16.62
2023-09-23T18:48:33.573Z,16.63
2023-09-23T18:51:37.462Z,16.64
2023-09-23T18:54:40.341Z,16.62
2023-09-23T18:57:42.978Z,16.59
2023-09-23T19:00:46.498Z,16.59
2023-09-23T19:03:49.629Z,16.62
2023-09-23T19:06:53.072Z,16.63
2023-09-23T19:09:56.464Z,16.62
2023-09-23T19:12:59.449Z,16.60
2023-09-23T19:16:02.561Z,16.51
2023-09-23T19:19:05.653Z,16.52
2023-09-23T19:22:09.376Z,16.46
2023-09-23T19:25:12.436Z,16.47
2023-09-23T19:28:15.557Z,16.49
2023-09-23T19:31:20.356Z,16.53
2023-09-23T19:34:27.803Z,16.50
2023-09-23T19:37:31.045Z,16.54
2023-09-23T19:40:37.421Z,16.57
2023-09-23T19:43:40.596Z,16.57
2023-09-23T19:46:43.460Z,16.59
2023-09-23T19:49:46.525Z,16.58
2023-09-23T19:52:49.405Z,16.59
2023-09-23T19:55:54.270Z,16.59
2023-09-23T19:58:56.761Z,16.57
2023-09-23T20:02:00.850Z,16.55
2023-09-23T20:05:04.048Z,16.53
2023-09-23T20:08:07.316Z,16.49
2023-09-23T20:11:10.199Z,16.46
2023-09-23T20:14:13.868Z,16.41
2023-09-23T20:17:17.667Z,16.34
2023-09-23T20:20:20.582Z,16.25
2023-09-23T20:23:27.433Z,16.22
2023-09-23T20:26:31.088Z,16.17
2023-09-23T20:29:34.105Z,16.25
2023-09-23T20:32:39.381Z,16.23
2023-09-23T20:35:43.348Z,16.23
2023-09-23T20:38:46.315Z,16.25
2023-09-23T20:41:49.941Z,16.25
2023-09-23T20:44:52.756Z,16.24
2023-09-23T20:47:56.368Z,16.24
2023-09-23T20:50:59.272Z,16.20
2023-09-23T20:54:02.509Z,16.26
2023-09-23T20:57:05.807Z,16.29
2023-09-23T21:00:09.493Z,16.31
2023-09-23T21:03:14.204Z,16.28
2023-09-23T21:06:19.161Z,16.26
2023-09-23T21:09:21.576Z,16.21
2023-09-23T21:12:24.244Z,16.15
2023-09-23T21:15:27.084Z,16.18
2023-09-23T21:18:30.272Z,16.16
2023-09-23T21:21:33.089Z,16.09
2023-09-23T21:24:35.886Z,16.00
2023-09-23T21:27:38.328Z,16.00
2023-09-23T21:30:41.043Z,16.01
2023-09-23T21:33:44.361Z,16.06
2023-09-23T21:36:47.373Z,16.07
2023-09-23T21:39:49.926Z,16.06
2023-09-23T21:42:52.912Z,15.97
2023-09-23T21:45:56.295Z,16.04
2023-09-23T21:48:59.144Z,16.09
2023-09-23T21:52:01.974Z,16.06
2023-09-23T21:55:06.691Z,16.10
2023-09-23T21:58:09.345Z,16.12
2023-09-23T22:01:12.327Z,16.09
2023-09-23T22:04:15.646Z,16.08
2023-09-23T22:07:18.522Z,16.04
2023-09-23T22:10:22.494Z,15.93
2023-09-23T22:13:24.936Z,15.94
2023-09-23T22:16:27.916Z,15.98
2023-09-23T22:19:32.304Z,15.99
2023-09-23T22:22:35.285Z,15.99
2023-09-23T22:25:41.014Z,15.99
2023-09-23T22:28:44.147Z,15.97
2023-09-23T22:31:46.818Z,15.97
2023-09-23T22:34:50.360Z,16.03
2023-09-23T22:37:53.172Z,16.04
2023-09-23T22:40:56.838Z,16.06
2023-09-23T22:44:00.024Z,16.00
2023-09-23T22:47:05.054Z,15.96
2023-09-23T22:50:09.662Z,15.93
2023-09-23T22:53:12.472Z,15.94
2023-09-23T22:56:14.968Z,15.99
2023-09-23T22:59:17.929Z,15.91
2023-09-23T23:02:20.630Z,15.94
2023-09-23T23:05:27.154Z,15.94
2023-09-23T23:08:31.317Z,15.90
2023-09-23T23:11:34.085Z,15.93
2023-09-23T23:14:36.558Z,15.97
2023-09-23T23:17:40.038Z,16.04
2023-09-23T23:20:42.546Z,16.03
2023-09-23T23:23:45.528Z,16.06
2023-09-23T23:26:48.129Z,16.01
2023-09-23T23:29:53.054Z,15.96
2023-09-23T23:32:56.045Z,16.01
2023-09-23T23:36:00.141Z,16.04
2023-09-23T23:39:06.825Z,16.08
2023-09-23T23:42:09.566Z,16.09
2023-09-23T23:45:12.020Z,16.07
2023-09-23T23:48:15.034Z,16.02
2023-09-23T23:51:17.809Z,15.94
2023-09-23T23:54:20.580Z,15.87
2023-09-23T23:57:24.139Z,15.80
